sensor_id;sensor_type;location;lat;lon;timestamp;P1;durP1;ratioP1;P2;durP2;ratioP2
69795;SDS011;57073;45.650;9.612;2023-06-10T00:00:59;12.73;;;9.23;;
69795;SDS011;57073;45.650;9.612;2023-06-10T00:05:59;11.20;;;8.70;;
69795;SDS011;57073;45.650;9.612;2023-06-10T00:11:00;10.97;;;8.77;;
69795;SDS011;57073;45.650;9.612;2023-06-10T00:16:00;12.67;;;8.53;;
69795;SDS011;57073;45.650;9.612;2023-06-10T00:21:01;13.53;;;8.83;;
69795;SDS011;57073;45.650;9.612;2023-06-10T00:26:04;13.60;;;8.57;;
69795;SDS011;57073;45.650;9.612;2023-06-10T00:31:05;13.63;;;7.88;;
69795;SDS011;57073;45.650;9.612;2023-06-10T00:36:05;10.90;;;7.87;;
69795;SDS011;57073;45.650;9.612;2023-06-10T00:41:06;11.07;;;8.07;;
69795;SDS011;57073;45.650;9.612;2023-06-10T00:46:07;14.18;;;9.20;;
69795;SDS011;57073;45.650;9.612;2023-06-10T00:51:08;12.50;;;8.63;;
69795;SDS011;57073;45.650;9.612;2023-06-10T00:56:12;13.27;;;9.37;;
69795;SDS011;57073;45.650;9.612;2023-06-10T01:01:13;14.68;;;10.13;;
69795;SDS011;57073;45.650;9.612;2023-06-10T01:11:24;16.05;;;10.68;;
69795;SDS011;57073;45.650;9.612;2023-06-10T01:16:34;18.20;;;11.47;;
69795;SDS011;57073;45.650;9.612;2023-06-10T01:21:37;14.98;;;10.48;;
69795;SDS011;57073;45.650;9.612;2023-06-10T01:26:39;14.32;;;9.68;;
69795;SDS011;57073;45.650;9.612;2023-06-10T01:31:54;13.10;;;9.57;;
69795;SDS011;57073;45.650;9.612;2023-06-10T01:37:17;13.05;;;8.70;;
69795;SDS011;57073;45.650;9.612;2023-06-10T01:42:21;12.55;;;7.88;;
69795;SDS011;57073;45.650;9.612;2023-06-10T01:47:21;13.50;;;7.67;;
69795;SDS011;57073;45.650;9.612;2023-06-10T01:52:22;13.10;;;8.10;;
69795;SDS011;57073;45.650;9.612;2023-06-10T01:57:22;12.40;;;8.50;;
69795;SDS011;57073;45.650;9.612;2023-06-10T02:02:22;12.43;;;7.87;;
69795;SDS011;57073;45.650;9.612;2023-06-10T02:07:24;10.50;;;7.72;;
69795;SDS011;57073;45.650;9.612;2023-06-10T02:12:25;9.97;;;7.30;;
69795;SDS011;57073;45.650;9.612;2023-06-10T02:17:25;10.83;;;7.00;;
69795;SDS011;57073;45.650;9.612;2023-06-10T02:22:26;12.03;;;6.97;;
69795;SDS011;57073;45.650;9.612;2023-06-10T02:27:26;9.77;;;6.50;;
69795;SDS011;57073;45.650;9.612;2023-06-10T02:32:27;8.13;;;5.50;;
69795;SDS011;57073;45.650;9.612;2023-06-10T02:37:28;9.23;;;5.73;;
69795;SDS011;57073;45.650;9.612;2023-06-10T02:42:28;8.87;;;5.53;;
69795;SDS011;57073;45.650;9.612;2023-06-10T02:47:28;10.27;;;5.90;;
69795;SDS011;57073;45.650;9.612;2023-06-10T02:52:29;6.60;;;5.03;;
69795;SDS011;57073;45.650;9.612;2023-06-10T02:57:31;6.72;;;4.90;;
69795;SDS011;57073;45.650;9.612;2023-06-10T03:02:31;6.97;;;5.20;;
69795;SDS011;57073;45.650;9.612;2023-06-10T03:07:32;8.03;;;5.30;;
69795;SDS011;57073;45.650;9.612;2023-06-10T03:12:32;8.20;;;5.17;;
69795;SDS011;57073;45.650;9.612;2023-06-10T03:17:32;11.10;;;5.63;;
69795;SDS011;57073;45.650;9.612;2023-06-10T03:22:33;7.37;;;5.20;;
69795;SDS011;57073;45.650;9.612;2023-06-10T03:27:33;9.83;;;5.80;;
69795;SDS011;57073;45.650;9.612;2023-06-10T03:32:35;9.07;;;5.47;;
69795;SDS011;57073;45.650;9.612;2023-06-10T03:37:36;8.50;;;5.40;;
69795;SDS011;57073;45.650;9.612;2023-06-10T03:42:37;9.93;;;5.57;;
69795;SDS011;57073;45.650;9.612;2023-06-10T03:47:37;9.77;;;5.57;;
69795;SDS011;57073;45.650;9.612;2023-06-10T03:52:37;8.27;;;5.63;;
69795;SDS011;57073;45.650;9.612;2023-06-10T03:57:38;9.73;;;5.85;;
69795;SDS011;57073;45.650;9.612;2023-06-10T04:02:38;8.15;;;5.70;;
69795;SDS011;57073;45.650;9.612;2023-06-10T04:07:45;9.30;;;5.80;;
69795;SDS011;57073;45.650;9.612;2023-06-10T04:12:48;7.82;;;5.20;;
69795;SDS011;57073;45.650;9.612;2023-06-10T04:17:48;7.57;;;5.20;;
69795;SDS011;57073;45.650;9.612;2023-06-10T04:22:49;8.10;;;5.77;;
69795;SDS011;57073;45.650;9.612;2023-06-10T04:27:49;12.27;;;5.50;;
69795;SDS011;57073;45.650;9.612;2023-06-10T04:32:50;9.23;;;4.93;;
69795;SDS011;57073;45.650;9.612;2023-06-10T04:37:50;8.27;;;5.23;;
69795;SDS011;57073;45.650;9.612;2023-06-10T04:42:50;11.83;;;5.73;;
69795;SDS011;57073;45.650;9.612;2023-06-10T04:47:50;9.60;;;4.80;;
69795;SDS011;57073;45.650;9.612;2023-06-10T04:52:51;8.88;;;5.18;;
69795;SDS011;57073;45.650;9.612;2023-06-10T04:57:51;7.23;;;4.40;;
69795;SDS011;57073;45.650;9.612;2023-06-10T05:02:52;8.63;;;5.10;;
69795;SDS011;57073;45.650;9.612;2023-06-10T05:07:52;8.57;;;4.60;;
69795;SDS011;57073;45.650;9.612;2023-06-10T05:12:53;6.97;;;4.80;;
69795;SDS011;57073;45.650;9.612;2023-06-10T05:17:53;8.27;;;5.07;;
69795;SDS011;57073;45.650;9.612;2023-06-10T05:22:53;8.57;;;5.63;;
69795;SDS011;57073;45.650;9.612;2023-06-10T05:27:54;10.13;;;5.70;;
69795;SDS011;57073;45.650;9.612;2023-06-10T05:32:54;8.37;;;6.27;;
69795;SDS011;57073;45.650;9.612;2023-06-10T05:37:56;10.13;;;6.10;;
69795;SDS011;57073;45.650;9.612;2023-06-10T05:42:56;12.93;;;7.00;;
69795;SDS011;57073;45.650;9.612;2023-06-10T05:47:57;8.93;;;6.33;;
69795;SDS011;57073;45.650;9.612;2023-06-10T05:52:57;9.07;;;5.87;;
69795;SDS011;57073;45.650;9.612;2023-06-10T05:57:58;7.40;;;5.27;;
69795;SDS011;57073;45.650;9.612;2023-06-10T06:03:00;10.82;;;5.18;;
69795;SDS011;57073;45.650;9.612;2023-06-10T06:08:01;9.27;;;4.40;;
69795;SDS011;57073;45.650;9.612;2023-06-10T06:13:02;6.23;;;4.43;;
69795;SDS011;57073;45.650;9.612;2023-06-10T06:18:02;7.82;;;4.80;;
69795;SDS011;57073;45.650;9.612;2023-06-10T06:23:03;7.53;;;4.57;;
69795;SDS011;57073;45.650;9.612;2023-06-10T06:28:04;9.03;;;5.00;;
69795;SDS011;57073;45.650;9.612;2023-06-10T06:33:06;11.90;;;5.70;;
69795;SDS011;57073;45.650;9.612;2023-06-10T06:38:06;7.87;;;4.63;;
69795;SDS011;57073;45.650;9.612;2023-06-10T06:43:06;8.83;;;5.70;;
69795;SDS011;57073;45.650;9.612;2023-06-10T06:48:07;9.53;;;5.90;;
69795;SDS011;57073;45.650;9.612;2023-06-10T06:53:08;9.47;;;5.40;;
69795;SDS011;57073;45.650;9.612;2023-06-10T06:58:08;8.50;;;5.83;;
69795;SDS011;57073;45.650;9.612;2023-06-10T07:03:08;7.93;;;5.70;;
69795;SDS011;57073;45.650;9.612;2023-06-10T07:08:09;10.63;;;5.53;;
69795;SDS011;57073;45.650;9.612;2023-06-10T07:13:09;8.17;;;5.60;;
69795;SDS011;57073;45.650;9.612;2023-06-10T07:18:10;8.00;;;5.00;;
69795;SDS011;57073;45.650;9.612;2023-06-10T07:23:10;8.80;;;4.83;;
69795;SDS011;57073;45.650;9.612;2023-06-10T07:28:11;8.67;;;5.43;;
69795;SDS011;57073;45.650;9.612;2023-06-10T07:33:11;15.27;;;5.77;;
69795;SDS011;57073;45.650;9.612;2023-06-10T07:38:11;8.40;;;4.87;;
69795;SDS011;57073;45.650;9.612;2023-06-10T07:43:12;7.40;;;5.23;;
69795;SDS011;57073;45.650;9.612;2023-06-10T07:48:12;6.83;;;4.97;;
69795;SDS011;57073;45.650;9.612;2023-06-10T07:53:13;7.40;;;4.83;;
69795;SDS011;57073;45.650;9.612;2023-06-10T07:58:13;8.63;;;5.77;;
69795;SDS011;57073;45.650;9.612;2023-06-10T08:03:13;9.10;;;5.60;;
69795;SDS011;57073;45.650;9.612;2023-06-10T08:08:14;7.87;;;4.87;;
69795;SDS011;57073;45.650;9.612;2023-06-10T08:13:14;8.37;;;5.57;;
69795;SDS011;57073;45.650;9.612;2023-06-10T08:18:14;7.87;;;5.23;;
69795;SDS011;57073;45.650;9.612;2023-06-10T08:23:15;6.60;;;4.67;;
69795;SDS011;57073;45.650;9.612;2023-06-10T08:28:15;6.47;;;4.17;;
69795;SDS011;57073;45.650;9.612;2023-06-10T08:38:49;7.45;;;3.60;;
69795;SDS011;57073;45.650;9.612;2023-06-10T08:44:08;8.17;;;3.10;;
69795;SDS011;57073;45.650;9.612;2023-06-10T08:49:14;6.10;;;3.10;;
69795;SDS011;57073;45.650;9.612;2023-06-10T08:54:21;5.03;;;3.05;;
69795;SDS011;57073;45.650;9.612;2023-06-10T08:59:24;5.03;;;3.10;;
69795;SDS011;57073;45.650;9.612;2023-06-10T09:04:25;5.03;;;3.33;;
69795;SDS011;57073;45.650;9.612;2023-06-10T09:09:26;4.93;;;3.33;;
69795;SDS011;57073;45.650;9.612;2023-06-10T09:14:29;8.73;;;3.67;;
69795;SDS011;57073;45.650;9.612;2023-06-10T09:19:29;6.63;;;3.93;;
69795;SDS011;57073;45.650;9.612;2023-06-10T09:24:29;7.87;;;3.93;;
69795;SDS011;57073;45.650;9.612;2023-06-10T09:29:31;5.20;;;3.53;;
69795;SDS011;57073;45.650;9.612;2023-06-10T09:34:31;6.63;;;4.10;;
69795;SDS011;57073;45.650;9.612;2023-06-10T09:39:31;9.03;;;4.53;;
69795;SDS011;57073;45.650;9.612;2023-06-10T09:44:32;9.67;;;5.20;;
69795;SDS011;57073;45.650;9.612;2023-06-10T09:49:32;10.73;;;4.83;;
69795;SDS011;57073;45.650;9.612;2023-06-10T09:54:32;8.20;;;5.83;;
69795;SDS011;57073;45.650;9.612;2023-06-10T09:59:33;8.73;;;4.63;;
69795;SDS011;57073;45.650;9.612;2023-06-10T10:04:35;9.93;;;4.68;;
69795;SDS011;57073;45.650;9.612;2023-06-10T10:09:39;6.97;;;4.60;;
69795;SDS011;57073;45.650;9.612;2023-06-10T10:14:45;7.40;;;4.93;;
69795;SDS011;57073;45.650;9.612;2023-06-10T10:19:48;9.13;;;5.00;;
69795;SDS011;57073;45.650;9.612;2023-06-10T10:24:51;7.88;;;4.22;;
69795;SDS011;57073;45.650;9.612;2023-06-10T10:29:55;5.87;;;4.23;;
69795;SDS011;57073;45.650;9.612;2023-06-10T10:39:59;8.23;;;4.20;;
69795;SDS011;57073;45.650;9.612;2023-06-10T10:45:01;9.80;;;4.18;;
69795;SDS011;57073;45.650;9.612;2023-06-10T10:50:03;5.82;;;4.55;;
69795;SDS011;57073;45.650;9.612;2023-06-10T10:55:14;6.27;;;4.80;;
69795;SDS011;57073;45.650;9.612;2023-06-10T11:00:15;8.88;;;4.90;;
69795;SDS011;57073;45.650;9.612;2023-06-10T11:10:40;11.27;;;5.70;;
69795;SDS011;57073;45.650;9.612;2023-06-10T11:15:45;8.00;;;5.10;;
69795;SDS011;57073;45.650;9.612;2023-06-10T11:25:50;8.73;;;5.00;;
69795;SDS011;57073;45.650;9.612;2023-06-10T11:30:56;6.93;;;4.63;;
69795;SDS011;57073;45.650;9.612;2023-06-10T11:35:57;10.00;;;5.20;;
69795;SDS011;57073;45.650;9.612;2023-06-10T11:41:01;26.73;;;14.68;;
69795;SDS011;57073;45.650;9.612;2023-06-10T11:46:02;27.73;;;16.33;;
69795;SDS011;57073;45.650;9.612;2023-06-10T11:51:08;11.93;;;7.37;;
69795;SDS011;57073;45.650;9.612;2023-06-10T11:56:09;10.13;;;5.97;;
69795;SDS011;57073;45.650;9.612;2023-06-10T12:01:09;11.77;;;6.17;;
69795;SDS011;57073;45.650;9.612;2023-06-10T12:06:09;6.50;;;5.10;;
69795;SDS011;57073;45.650;9.612;2023-06-10T12:11:10;6.93;;;4.87;;
69795;SDS011;57073;45.650;9.612;2023-06-10T12:16:10;10.23;;;4.65;;
69795;SDS011;57073;45.650;9.612;2023-06-10T12:21:23;7.07;;;4.80;;
69795;SDS011;57073;45.650;9.612;2023-06-10T12:26:33;9.73;;;5.17;;
69795;SDS011;57073;45.650;9.612;2023-06-10T12:31:56;7.40;;;5.53;;
69795;SDS011;57073;45.650;9.612;2023-06-10T12:37:05;6.43;;;5.70;;
69795;SDS011;57073;45.650;9.612;2023-06-10T12:42:13;6.40;;;5.60;;
69795;SDS011;57073;45.650;9.612;2023-06-10T12:47:13;6.77;;;5.20;;
69795;SDS011;57073;45.650;9.612;2023-06-10T12:52:14;7.83;;;5.73;;
69795;SDS011;57073;45.650;9.612;2023-06-10T12:57:14;21.80;;;14.03;;
69795;SDS011;57073;45.650;9.612;2023-06-10T13:02:15;15.97;;;11.67;;
69795;SDS011;57073;45.650;9.612;2023-06-10T13:07:15;9.43;;;6.93;;
69795;SDS011;57073;45.650;9.612;2023-06-10T13:12:16;8.27;;;6.60;;
69795;SDS011;57073;45.650;9.612;2023-06-10T13:17:17;9.73;;;6.72;;
69795;SDS011;57073;45.650;9.612;2023-06-10T13:22:17;9.97;;;6.13;;
69795;SDS011;57073;45.650;9.612;2023-06-10T13:27:20;9.98;;;6.22;;
69795;SDS011;57073;45.650;9.612;2023-06-10T13:32:20;8.60;;;5.57;;
69795;SDS011;57073;45.650;9.612;2023-06-10T13:37:21;11.20;;;6.80;;
69795;SDS011;57073;45.650;9.612;2023-06-10T13:42:21;7.50;;;6.53;;
69795;SDS011;57073;45.650;9.612;2023-06-10T13:47:22;8.83;;;6.40;;
69795;SDS011;57073;45.650;9.612;2023-06-10T13:52:22;9.70;;;6.80;;
69795;SDS011;57073;45.650;9.612;2023-06-10T13:57:22;9.17;;;6.90;;
69795;SDS011;57073;45.650;9.612;2023-06-10T14:02:23;10.35;;;6.80;;
69795;SDS011;57073;45.650;9.612;2023-06-10T14:07:23;9.30;;;6.87;;
69795;SDS011;57073;45.650;9.612;2023-06-10T14:12:26;10.00;;;6.87;;
69795;SDS011;57073;45.650;9.612;2023-06-10T14:17:26;9.80;;;6.53;;
69795;SDS011;57073;45.650;9.612;2023-06-10T14:22:26;10.38;;;6.50;;
69795;SDS011;57073;45.650;9.612;2023-06-10T14:27:27;11.90;;;6.87;;
69795;SDS011;57073;45.650;9.612;2023-06-10T14:32:27;7.90;;;6.95;;
69795;SDS011;57073;45.650;9.612;2023-06-10T14:37:27;10.10;;;6.10;;
69795;SDS011;57073;45.650;9.612;2023-06-10T14:42:28;8.57;;;7.10;;
69795;SDS011;57073;45.650;9.612;2023-06-10T14:47:28;7.50;;;6.40;;
69795;SDS011;57073;45.650;9.612;2023-06-10T14:52:28;7.07;;;6.07;;
69795;SDS011;57073;45.650;9.612;2023-06-10T14:57:29;12.70;;;6.30;;
69795;SDS011;57073;45.650;9.612;2023-06-10T15:02:29;8.93;;;7.03;;
69795;SDS011;57073;45.650;9.612;2023-06-10T15:07:29;9.37;;;6.27;;
69795;SDS011;57073;45.650;9.612;2023-06-10T15:12:30;8.57;;;6.10;;
69795;SDS011;57073;45.650;9.612;2023-06-10T15:17:30;7.60;;;6.20;;
69795;SDS011;57073;45.650;9.612;2023-06-10T15:22:30;8.57;;;5.87;;
69795;SDS011;57073;45.650;9.612;2023-06-10T15:27:31;10.83;;;6.40;;
69795;SDS011;57073;45.650;9.612;2023-06-10T15:32:31;10.13;;;6.30;;
69795;SDS011;57073;45.650;9.612;2023-06-10T15:37:31;11.07;;;6.40;;
69795;SDS011;57073;45.650;9.612;2023-06-10T15:42:32;8.03;;;6.17;;
69795;SDS011;57073;45.650;9.612;2023-06-10T15:47:32;10.70;;;6.00;;
69795;SDS011;57073;45.650;9.612;2023-06-10T15:52:32;7.73;;;6.00;;
69795;SDS011;57073;45.650;9.612;2023-06-10T15:57:33;8.43;;;6.33;;
69795;SDS011;57073;45.650;9.612;2023-06-10T16:02:33;10.63;;;6.57;;
69795;SDS011;57073;45.650;9.612;2023-06-10T16:07:33;11.87;;;6.40;;
69795;SDS011;57073;45.650;9.612;2023-06-10T16:12:34;9.03;;;6.23;;
69795;SDS011;57073;45.650;9.612;2023-06-10T16:17:34;6.77;;;5.90;;
69795;SDS011;57073;45.650;9.612;2023-06-10T16:22:35;7.33;;;5.97;;
69795;SDS011;57073;45.650;9.612;2023-06-10T16:27:35;8.10;;;6.20;;
69795;SDS011;57073;45.650;9.612;2023-06-10T16:32:35;7.90;;;5.97;;
69795;SDS011;57073;45.650;9.612;2023-06-10T16:37:36;9.50;;;6.20;;
69795;SDS011;57073;45.650;9.612;2023-06-10T16:42:36;8.53;;;6.50;;
69795;SDS011;57073;45.650;9.612;2023-06-10T16:47:36;10.63;;;6.17;;
69795;SDS011;57073;45.650;9.612;2023-06-10T16:52:37;9.57;;;6.13;;
69795;SDS011;57073;45.650;9.612;2023-06-10T16:57:37;7.00;;;6.23;;
69795;SDS011;57073;45.650;9.612;2023-06-10T17:02:38;9.73;;;6.53;;
69795;SDS011;57073;45.650;9.612;2023-06-10T17:07:38;7.23;;;6.03;;
69795;SDS011;57073;45.650;9.612;2023-06-10T17:12:38;8.73;;;6.30;;
69795;SDS011;57073;45.650;9.612;2023-06-10T17:17:39;9.40;;;6.20;;
69795;SDS011;57073;45.650;9.612;2023-06-10T17:22:39;8.20;;;6.30;;
69795;SDS011;57073;45.650;9.612;2023-06-10T17:27:39;8.53;;;6.90;;
69795;SDS011;57073;45.650;9.612;2023-06-10T17:32:40;10.30;;;6.50;;
69795;SDS011;57073;45.650;9.612;2023-06-10T17:37:40;8.43;;;6.37;;
69795;SDS011;57073;45.650;9.612;2023-06-10T17:42:40;7.13;;;5.70;;
69795;SDS011;57073;45.650;9.612;2023-06-10T17:47:41;6.43;;;5.77;;
69795;SDS011;57073;45.650;9.612;2023-06-10T17:52:41;6.83;;;6.00;;
69795;SDS011;57073;45.650;9.612;2023-06-10T17:57:41;8.37;;;6.77;;
69795;SDS011;57073;45.650;9.612;2023-06-10T18:02:42;8.87;;;6.77;;
69795;SDS011;57073;45.650;9.612;2023-06-10T18:07:42;10.27;;;6.47;;
69795;SDS011;57073;45.650;9.612;2023-06-10T18:12:42;6.90;;;6.17;;
69795;SDS011;57073;45.650;9.612;2023-06-10T18:17:43;7.67;;;6.10;;
69795;SDS011;57073;45.650;9.612;2023-06-10T18:22:43;7.53;;;6.10;;
69795;SDS011;57073;45.650;9.612;2023-06-10T18:27:43;11.43;;;5.90;;
69795;SDS011;57073;45.650;9.612;2023-06-10T18:32:44;8.03;;;5.90;;
69795;SDS011;57073;45.650;9.612;2023-06-10T18:37:44;8.40;;;6.40;;
69795;SDS011;57073;45.650;9.612;2023-06-10T18:42:45;7.28;;;5.68;;
69795;SDS011;57073;45.650;9.612;2023-06-10T18:47:45;11.93;;;6.00;;
69795;SDS011;57073;45.650;9.612;2023-06-10T18:52:46;6.65;;;5.57;;
69795;SDS011;57073;45.650;9.612;2023-06-10T18:57:46;8.30;;;6.00;;
69795;SDS011;57073;45.650;9.612;2023-06-10T19:02:46;8.03;;;6.67;;
69795;SDS011;57073;45.650;9.612;2023-06-10T19:07:47;8.40;;;6.00;;
69795;SDS011;57073;45.650;9.612;2023-06-10T19:12:47;11.05;;;6.80;;
69795;SDS011;57073;45.650;9.612;2023-06-10T19:17:47;9.77;;;7.33;;
69795;SDS011;57073;45.650;9.612;2023-06-10T19:22:48;8.60;;;7.30;;
69795;SDS011;57073;45.650;9.612;2023-06-10T19:27:48;10.43;;;6.43;;
69795;SDS011;57073;45.650;9.612;2023-06-10T19:32:48;8.15;;;6.50;;
69795;SDS011;57073;45.650;9.612;2023-06-10T19:37:49;7.97;;;6.30;;
69795;SDS011;57073;45.650;9.612;2023-06-10T19:42:49;7.67;;;6.30;;
69795;SDS011;57073;45.650;9.612;2023-06-10T19:47:51;6.90;;;5.70;;
69795;SDS011;57073;45.650;9.612;2023-06-10T19:52:51;7.43;;;6.23;;
69795;SDS011;57073;45.650;9.612;2023-06-10T19:57:51;7.07;;;6.37;;
69795;SDS011;57073;45.650;9.612;2023-06-10T20:02:55;8.30;;;6.37;;
69795;SDS011;57073;45.650;9.612;2023-06-10T20:07:55;6.47;;;5.87;;
69795;SDS011;57073;45.650;9.612;2023-06-10T20:12:55;10.00;;;7.07;;
69795;SDS011;57073;45.650;9.612;2023-06-10T20:17:55;12.38;;;8.70;;
69795;SDS011;57073;45.650;9.612;2023-06-10T20:22:56;12.07;;;8.67;;
69795;SDS011;57073;45.650;9.612;2023-06-10T20:27:56;12.53;;;7.63;;
69795;SDS011;57073;45.650;9.612;2023-06-10T20:32:57;12.27;;;8.23;;
69795;SDS011;57073;45.650;9.612;2023-06-10T20:37:57;14.77;;;8.20;;
69795;SDS011;57073;45.650;9.612;2023-06-10T20:42:57;13.47;;;8.13;;
69795;SDS011;57073;45.650;9.612;2023-06-10T20:47:58;13.37;;;8.90;;
69795;SDS011;57073;45.650;9.612;2023-06-10T20:52:58;12.80;;;8.47;;
69795;SDS011;57073;45.650;9.612;2023-06-10T20:57:58;14.57;;;8.83;;
69795;SDS011;57073;45.650;9.612;2023-06-10T21:02:59;14.73;;;10.20;;
69795;SDS011;57073;45.650;9.612;2023-06-10T21:08:00;17.27;;;9.98;;
69795;SDS011;57073;45.650;9.612;2023-06-10T21:13:00;15.00;;;9.10;;
69795;SDS011;57073;45.650;9.612;2023-06-10T21:18:01;16.97;;;10.47;;
69795;SDS011;57073;45.650;9.612;2023-06-10T21:23:01;14.83;;;9.03;;
69795;SDS011;57073;45.650;9.612;2023-06-10T21:28:01;14.18;;;9.45;;
69795;SDS011;57073;45.650;9.612;2023-06-10T21:33:03;14.40;;;8.90;;
69795;SDS011;57073;45.650;9.612;2023-06-10T21:38:04;13.23;;;8.40;;
69795;SDS011;57073;45.650;9.612;2023-06-10T21:43:04;10.40;;;6.95;;
69795;SDS011;57073;45.650;9.612;2023-06-10T21:48:05;13.87;;;8.40;;
69795;SDS011;57073;45.650;9.612;2023-06-10T21:53:07;12.68;;;8.68;;
69795;SDS011;57073;45.650;9.612;2023-06-10T21:58:07;12.03;;;7.00;;
69795;SDS011;57073;45.650;9.612;2023-06-10T22:03:07;11.20;;;6.33;;
69795;SDS011;57073;45.650;9.612;2023-06-10T22:08:08;15.60;;;8.23;;
69795;SDS011;57073;45.650;9.612;2023-06-10T22:13:09;14.57;;;9.18;;
69795;SDS011;57073;45.650;9.612;2023-06-10T22:18:10;16.33;;;9.70;;
69795;SDS011;57073;45.650;9.612;2023-06-10T22:23:10;13.03;;;5.40;;
69795;SDS011;57073;45.650;9.612;2023-06-10T22:28:11;8.47;;;3.73;;
69795;SDS011;57073;45.650;9.612;2023-06-10T22:33:11;8.73;;;3.60;;
69795;SDS011;57073;45.650;9.612;2023-06-10T22:38:12;8.13;;;3.40;;
69795;SDS011;57073;45.650;9.612;2023-06-10T22:43:12;11.38;;;6.22;;
69795;SDS011;57073;45.650;9.612;2023-06-10T22:48:12;8.87;;;5.67;;
69795;SDS011;57073;45.650;9.612;2023-06-10T22:53:13;13.10;;;7.40;;
69795;SDS011;57073;45.650;9.612;2023-06-10T22:58:13;10.53;;;5.63;;
69795;SDS011;57073;45.650;9.612;2023-06-10T23:03:13;10.00;;;5.33;;
69795;SDS011;57073;45.650;9.612;2023-06-10T23:08:14;9.90;;;5.50;;
69795;SDS011;57073;45.650;9.612;2023-06-10T23:13:15;8.40;;;5.27;;
69795;SDS011;57073;45.650;9.612;2023-06-10T23:18:15;9.67;;;5.50;;
69795;SDS011;57073;45.650;9.612;2023-06-10T23:23:16;11.55;;;6.18;;
69795;SDS011;57073;45.650;9.612;2023-06-10T23:28:17;17.93;;;7.10;;
69795;SDS011;57073;45.650;9.612;2023-06-10T23:33:17;9.87;;;6.53;;
69795;SDS011;57073;45.650;9.612;2023-06-10T23:38:18;12.90;;;6.78;;
69795;SDS011;57073;45.650;9.612;2023-06-10T23:43:18;14.07;;;7.70;;
69795;SDS011;57073;45.650;9.612;2023-06-10T23:48:18;11.70;;;7.30;;
69795;SDS011;57073;45.650;9.612;2023-06-10T23:53:19;10.90;;;6.93;;
69795;SDS011;57073;45.650;9.612;2023-06-10T23:58:19;9.57;;;6.53;;
